Time;durP1;ratioP1;P1;durP2;ratioP2;P2;SDS_P1;SDS_P2;PMS_P1;PMS_P2;Temp;Humidity;BMP_temperature;BMP_pressure;BME280_temperature;BME280_humidity;BME280_pressure;Samples;Min_cycle;Max_cycle;Signal;HPM_P1;HPM_P2
2021/06/01 00:01:32;;;;;;;3.53;3.13;;;10.30;99.90;;;;;;4956620;28;20193;-73
2021/06/01 00:03:58;;;;;;;7.10;3.30;;;10.30;99.90;;;;;;4963426;28;20213;-72
2021/06/01 00:06:25;;;;;;;4.77;3.00;;;10.40;99.90;;;;;;4964048;28;20668;-72
2021/06/01 00:08:52;;;;;;;6.00;3.37;;;10.60;99.90;;;;;;4969746;28;20240;-72
2021/06/01 00:11:19;;;;;;;3.70;2.70;;;10.50;99.90;;;;;;4970727;28;20624;-73
2021/06/01 00:13:46;;;;;;;3.47;2.40;;;10.40;99.90;;;;;;4959893;28;20683;-72
2021/06/01 00:16:14;;;;;;;4.20;2.93;;;10.30;99.90;;;;;;4965174;28;20221;-73
2021/06/01 00:18:42;;;;;;;4.57;2.50;;;9.90;99.90;;;;;;4968542;28;20593;-73
2021/06/01 00:21:09;;;;;;;5.93;2.83;;;10.00;99.90;;;;;;4970366;28;20206;-73
2021/06/01 00:23:37;;;;;;;4.03;2.80;;;10.10;99.90;;;;;;4967365;28;20715;-72
2021/06/01 00:26:05;;;;;;;4.70;3.20;;;10.30;99.90;;;;;;4970278;28;20652;-73
2021/06/01 00:28:32;;;;;;;3.73;2.93;;;10.50;99.90;;;;;;4969331;28;20217;-73
2021/06/01 00:31:00;;;;;;;5.83;3.50;;;10.50;99.90;;;;;;4970576;28;20209;-72
2021/06/01 00:33:26;;;;;;;3.17;2.87;;;10.50;99.90;;;;;;4972603;28;20681;-73
2021/06/01 00:35:53;;;;;;;5.07;3.50;;;10.60;99.90;;;;;;4972158;28;20315;-73
2021/06/01 00:38:19;;;;;;;4.60;3.57;;;10.60;99.90;;;;;;4968190;28;20661;-72
2021/06/01 00:40:46;;;;;;;4.27;3.10;;;10.50;99.90;;;;;;4968246;28;20206;-72
2021/06/01 00:43:12;;;;;;;5.73;3.60;;;10.60;99.90;;;;;;4956471;28;20223;-72
2021/06/01 00:45:40;;;;;;;5.47;3.00;;;10.60;99.90;;;;;;4966286;28;20652;-72
2021/06/01 00:48:08;;;;;;;4.50;3.00;;;10.50;99.90;;;;;;4969635;28;20697;-72
2021/06/01 00:50:35;;;;;;;4.97;3.10;;;10.30;99.90;;;;;;4966427;28;20217;-73
2021/06/01 00:53:02;;;;;;;6.00;3.27;;;10.20;99.90;;;;;;4969569;28;20232;-73
2021/06/01 00:55:28;;;;;;;4.30;3.30;;;10.10;99.90;;;;;;4962068;28;20242;-73
2021/06/01 00:57:56;;;;;;;5.80;3.30;;;10.20;99.90;;;;;;4964424;28;20670;-72
2021/06/01 01:00:41;;;;;;;5.77;3.40;;;10.10;99.90;;;;;;4950375;28;20555;-72
2021/06/01 01:03:09;;;;;;;4.80;3.27;;;10.10;99.90;;;;;;4967519;28;20226;-72
2021/06/01 01:05:39;;;;;;;5.80;3.30;;;10.10;99.90;;;;;;4967873;28;20237;-72
2021/06/01 01:08:21;;;;;;;4.17;3.47;;;10.10;99.90;;;;;;4970169;28;20721;-72
2021/06/01 01:10:50;;;;;;;5.57;3.53;;;10.20;99.90;;;;;;4967709;28;20217;-72
2021/06/01 01:13:19;;;;;;;3.53;3.20;;;10.20;99.90;;;;;;4969958;28;20236;-73
2021/06/01 01:15:49;;;;;;;5.77;3.40;;;10.20;99.90;;;;;;4969050;28;20609;-73
2021/06/01 01:18:21;;;;;;;4.13;2.93;;;10.20;99.90;;;;;;4952851;28;20252;-73
2021/06/01 01:20:59;;;;;;;4.47;3.13;;;10.20;99.90;;;;;;4956955;28;20202;-72
2021/06/01 01:23:27;;;;;;;4.03;3.00;;;10.20;99.90;;;;;;4961671;28;20272;-72
2021/06/01 01:26:02;;;;;;;4.57;3.40;;;10.10;99.90;;;;;;4965925;28;20678;-73
2021/06/01 01:28:37;;;;;;;4.03;2.67;;;10.10;99.90;;;;;;4966112;28;20582;-73
2021/06/01 01:31:11;;;;;;;6.10;3.23;;;10.00;99.90;;;;;;4972352;28;20197;-73
2021/06/01 01:33:42;;;;;;;5.13;3.43;;;9.90;99.90;;;;;;4967120;28;20217;-73
2021/06/01 01:36:12;;;;;;;5.40;3.20;;;9.90;99.90;;;;;;4958749;28;21585;-73
2021/06/01 01:38:40;;;;;;;5.13;3.50;;;10.00;99.90;;;;;;4953811;28;20233;-72
2021/06/01 01:41:10;;;;;;;8.80;3.43;;;10.00;99.90;;;;;;4948930;28;20199;-72
2021/06/01 01:43:38;;;;;;;4.47;3.20;;;10.00;99.90;;;;;;4961855;28;20232;-72
2021/06/01 01:46:09;;;;;;;3.50;3.00;;;9.90;99.90;;;;;;4967617;28;20545;-72
2021/06/01 01:48:58;;;;;;;5.13;3.57;;;9.70;99.90;;;;;;4968800;28;20210;-72
2021/06/01 01:51:31;;;;;;;5.63;3.10;;;9.60;99.90;;;;;;4965491;28;20209;-72
2021/06/01 01:54:01;;;;;;;6.23;3.43;;;9.70;99.90;;;;;;4969283;28;20206;-73
2021/06/01 01:56:33;;;;;;;3.67;3.30;;;9.70;99.90;;;;;;4967243;28;20640;-72
2021/06/01 01:59:01;;;;;;;5.80;3.03;;;9.80;99.90;;;;;;4969347;28;20289;-73
2021/06/01 02:01:31;;;;;;;5.73;3.60;;;9.70;99.90;;;;;;4967079;28;20574;-73
2021/06/01 02:04:00;;;;;;;5.67;2.57;;;9.60;99.90;;;;;;4974540;28;20687;-72
2021/06/01 02:06:26;;;;;;;6.53;3.40;;;9.00;99.90;;;;;;4966945;28;20203;-72
2021/06/01 02:08:52;;;;;;;3.40;2.83;;;8.60;99.90;;;;;;4973976;28;20267;-72
2021/06/01 02:11:20;;;;;;;5.47;3.63;;;8.80;99.90;;;;;;4950405;28;20209;-72
2021/06/01 02:13:49;;;;;;;3.70;2.90;;;9.20;99.90;;;;;;4967873;28;20198;-72
2021/06/01 02:16:16;;;;;;;4.27;3.23;;;9.60;99.90;;;;;;4965837;28;20214;-71
2021/06/01 02:18:43;;;;;;;4.03;3.10;;;9.60;99.90;;;;;;4963466;28;20205;-72
2021/06/01 02:21:21;;;;;;;5.33;3.23;;;9.50;99.90;;;;;;4969784;28;20201;-72
2021/06/01 02:23:54;;;;;;;5.13;2.73;;;9.10;99.90;;;;;;4950706;29;20252;-71
2021/06/01 02:26:37;;;;;;;4.00;2.77;;;9.10;99.90;;;;;;4958600;28;20590;-72
2021/06/01 02:29:11;;;;;;;5.73;3.10;;;9.10;99.90;;;;;;4964827;28;20198;-72
2021/06/01 02:31:42;;;;;;;4.63;3.40;;;8.90;99.90;;;;;;4968977;28;20255;-72
2021/06/01 02:34:12;;;;;;;4.80;3.00;;;9.00;99.90;;;;;;4962491;28;20818;-71
2021/06/01 02:36:41;;;;;;;4.93;3.27;;;9.10;99.90;;;;;;4966247;28;20238;-72
2021/06/01 02:39:09;;;;;;;5.00;3.30;;;8.80;99.90;;;;;;4970580;28;20206;-71
2021/06/01 02:41:35;;;;;;;5.60;2.93;;;8.80;99.90;;;;;;4967268;28;20205;-72
2021/06/01 02:44:02;;;;;;;4.93;3.30;;;8.90;99.90;;;;;;4971148;28;20699;-71
2021/06/01 02:46:28;;;;;;;5.43;3.50;;;8.80;99.90;;;;;;4984126;28;20209;-72
2021/06/01 02:48:55;;;;;;;4.67;3.10;;;8.70;99.90;;;;;;4967508;28;20240;-72
2021/06/01 02:51:23;;;;;;;5.87;3.10;;;8.80;99.90;;;;;;4969026;28;20225;-71
2021/06/01 02:53:53;;;;;;;3.70;3.03;;;8.90;99.90;;;;;;4971521;28;20263;-72
2021/06/01 02:56:20;;;;;;;4.53;3.20;;;8.80;99.90;;;;;;4970687;28;20678;-71
2021/06/01 02:58:48;;;;;;;7.80;3.10;;;8.80;99.90;;;;;;4969345;28;20209;-72
2021/06/01 03:01:15;;;;;;;4.10;3.10;;;8.80;99.90;;;;;;4973677;28;20210;-72
2021/06/01 03:03:46;;;;;;;5.50;2.97;;;8.90;99.90;;;;;;4968317;28;20240;-73
2021/06/01 03:06:13;;;;;;;3.93;2.70;;;8.70;99.90;;;;;;4971509;28;20212;-72
2021/06/01 03:08:40;;;;;;;3.90;3.00;;;8.60;99.90;;;;;;4969306;28;20214;-72
2021/06/01 03:11:09;;;;;;;3.37;3.03;;;8.60;99.90;;;;;;4968277;28;20202;-72
2021/06/01 03:13:36;;;;;;;3.90;2.67;;;8.70;99.90;;;;;;4964425;28;20259;-72
2021/06/01 03:16:03;;;;;;;3.60;2.80;;;8.60;99.90;;;;;;4967342;28;20203;-72
2021/06/01 03:18:30;;;;;;;6.20;3.87;;;8.50;99.90;;;;;;4969980;28;20237;-73
2021/06/01 03:20:58;;;;;;;4.27;3.10;;;8.60;99.90;;;;;;4968185;28;20296;-72
2021/06/01 03:23:24;;;;;;;6.63;3.13;;;8.70;99.90;;;;;;4968548;28;20299;-72
2021/06/01 03:25:51;;;;;;;4.10;3.27;;;8.50;99.90;;;;;;4964786;28;20238;-72
2021/06/01 03:28:19;;;;;;;4.83;3.00;;;8.50;99.90;;;;;;4968969;28;20229;-72
2021/06/01 03:30:47;;;;;;;4.30;3.10;;;8.70;99.90;;;;;;4965562;28;20202;-72
2021/06/01 03:33:14;;;;;;;4.40;3.07;;;8.80;99.90;;;;;;4968100;28;20294;-72
2021/06/01 03:35:41;;;;;;;5.97;3.10;;;9.00;99.90;;;;;;4967457;28;20535;-72
2021/06/01 03:38:08;;;;;;;5.67;3.20;;;9.10;99.90;;;;;;4973475;28;20285;-72
2021/06/01 03:40:34;;;;;;;5.63;3.30;;;9.10;99.90;;;;;;4970356;28;20263;-72
2021/06/01 03:43:01;;;;;;;7.10;3.70;;;9.20;99.90;;;;;;4966387;28;20253;-72
2021/06/01 03:45:29;;;;;;;3.43;3.03;;;9.10;99.90;;;;;;4965670;28;20243;-72
2021/06/01 03:47:55;;;;;;;4.87;3.80;;;9.20;99.90;;;;;;4968881;28;20206;-72
2021/06/01 03:50:23;;;;;;;5.23;3.37;;;9.30;99.90;;;;;;4966884;28;20565;-72
2021/06/01 03:52:50;;;;;;;7.90;4.67;;;9.40;99.90;;;;;;4970109;28;20430;-72
2021/06/01 03:55:17;;;;;;;6.93;3.63;;;9.50;99.90;;;;;;4968017;28;20562;-72
2021/06/01 03:57:45;;;;;;;5.30;3.30;;;9.70;99.90;;;;;;4968421;28;20209;-72
2021/06/01 04:00:14;;;;;;;5.00;3.60;;;9.80;99.90;;;;;;4960002;28;20231;-72
2021/06/01 04:02:42;;;;;;;4.50;3.40;;;10.00;99.90;;;;;;4971299;28;20329;-72
2021/06/01 04:05:10;;;;;;;5.20;3.20;;;11.10;99.90;;;;;;4964090;28;20239;-72
2021/06/01 04:07:36;;;;;;;5.03;3.10;;;12.30;99.90;;;;;;4968339;28;20273;-72
2021/06/01 04:10:04;;;;;;;6.13;3.30;;;12.10;99.90;;;;;;4966411;28;20214;-73
2021/06/01 04:12:31;;;;;;;4.17;3.10;;;11.40;99.90;;;;;;4967739;28;20682;-72
2021/06/01 04:14:57;;;;;;;5.67;3.40;;;11.10;99.90;;;;;;4969275;28;20217;-72
2021/06/01 04:17:24;;;;;;;3.57;2.90;;;11.80;99.90;;;;;;4967307;28;20229;-72
2021/06/01 04:19:51;;;;;;;4.30;3.30;;;12.90;99.90;;;;;;4972111;28;20201;-72
2021/06/01 04:22:18;;;;;;;3.73;3.00;;;14.20;99.90;;;;;;4983900;28;20222;-72
2021/06/01 04:24:44;;;;;;;4.27;3.00;;;14.20;99.90;;;;;;4980210;28;20209;-73
2021/06/01 04:27:11;;;;;;;4.90;3.50;;;13.80;99.90;;;;;;4969895;28;20244;-73
2021/06/01 04:29:37;;;;;;;4.40;2.90;;;14.00;99.90;;;;;;4969182;28;20721;-73
2021/06/01 04:32:05;;;;;;;3.50;2.83;;;12.90;99.90;;;;;;4970010;28;20198;-73
2021/06/01 04:34:31;;;;;;;4.73;2.77;;;12.10;99.90;;;;;;4965840;28;20643;-73
2021/06/01 04:36:59;;;;;;;4.87;3.20;;;11.80;99.90;;;;;;4970408;28;20270;-73
2021/06/01 04:39:26;;;;;;;5.13;3.60;;;11.60;99.90;;;;;;4961076;28;20211;-73
2021/06/01 04:41:52;;;;;;;5.07;3.20;;;11.60;99.90;;;;;;4952218;28;20248;-72
2021/06/01 04:44:19;;;;;;;5.57;3.40;;;11.50;99.90;;;;;;4969673;28;20264;-73
2021/06/01 04:46:45;;;;;;;4.93;2.90;;;11.50;99.90;;;;;;4970728;28;20220;-72
2021/06/01 04:49:12;;;;;;;8.90;4.87;;;11.40;99.90;;;;;;4970383;28;20267;-73
2021/06/01 04:51:38;;;;;;;4.97;3.40;;;11.40;99.90;;;;;;4971860;28;20205;-72
2021/06/01 04:54:06;;;;;;;6.10;3.40;;;11.50;99.90;;;;;;4978673;28;20206;-73
2021/06/01 04:56:33;;;;;;;5.10;3.20;;;11.60;99.90;;;;;;4949158;29;20252;-73
2021/06/01 04:58:59;;;;;;;6.63;3.57;;;11.50;99.90;;;;;;4960524;28;20745;-72
2021/06/01 05:01:26;;;;;;;4.20;3.77;;;11.80;99.90;;;;;;4959944;28;20241;-72
2021/06/01 05:03:53;;;;;;;5.73;3.60;;;11.60;99.90;;;;;;4969739;28;20253;-72
2021/06/01 05:06:20;;;;;;;6.47;3.57;;;11.60;99.90;;;;;;4967229;28;20206;-73
2021/06/01 05:08:47;;;;;;;4.17;3.30;;;11.90;99.90;;;;;;4958067;28;20214;-72
2021/06/01 05:11:15;;;;;;;6.33;3.50;;;12.90;99.90;;;;;;4952815;28;20571;-73
2021/06/01 05:13:42;;;;;;;4.37;3.50;;;14.50;99.90;;;;;;4970061;28;20262;-73
2021/06/01 05:16:09;;;;;;;5.47;3.77;;;15.00;99.90;;;;;;4969403;28;20235;-73
2021/06/01 05:18:35;;;;;;;6.03;3.30;;;14.30;99.90;;;;;;4967651;28;20229;-73
2021/06/01 05:21:02;;;;;;;4.23;3.00;;;13.20;99.90;;;;;;4967992;28;20663;-73
2021/06/01 05:23:28;;;;;;;4.77;2.93;;;12.70;99.90;;;;;;4979568;28;20245;-73
2021/06/01 05:25:55;;;;;;;6.37;3.20;;;12.50;99.90;;;;;;4968815;28;20563;-73
2021/06/01 05:28:23;;;;;;;5.73;3.70;;;12.60;99.90;;;;;;4963737;28;20561;-73
2021/06/01 05:30:58;;;;;;;3.57;3.03;;;12.90;99.90;;;;;;4966257;28;20209;-73
2021/06/01 05:33:26;;;;;;;6.83;3.73;;;12.70;99.90;;;;;;4968563;28;20209;-73
2021/06/01 05:35:53;;;;;;;5.73;3.70;;;13.20;99.90;;;;;;4969912;28;20307;-73
2021/06/01 05:38:21;;;;;;;5.60;3.60;;;13.50;99.90;;;;;;4969582;28;20296;-73
2021/06/01 05:40:48;;;;;;;6.60;3.97;;;13.20;99.90;;;;;;4967772;28;20696;-73
2021/06/01 05:43:15;;;;;;;9.03;3.33;;;13.60;99.90;;;;;;4962558;28;20230;-73
2021/06/01 05:45:44;;;;;;;3.87;3.47;;;14.50;99.90;;;;;;5062923;23;20225;-67
2021/06/01 05:48:11;;;;;;;5.93;3.67;;;16.40;99.90;;;;;;4970083;28;20662;-67
2021/06/01 05:50:38;;;;;;;3.33;3.00;;;17.00;99.90;;;;;;4977087;28;20215;-67
2021/06/01 05:53:06;;;;;;;3.97;3.50;;;16.40;99.90;;;;;;4970434;28;20216;-67
2021/06/01 05:55:33;;;;;;;5.03;3.60;;;15.70;99.90;;;;;;4969153;28;20205;-67
2021/06/01 05:57:59;;;;;;;5.53;3.55;;;15.10;99.90;;;;;;4968774;28;20217;-67
2021/06/01 06:00:27;;;;;;;4.40;3.60;;;14.50;99.90;;;;;;4967882;28;20320;-68
2021/06/01 06:02:55;;;;;;;7.03;3.73;;;14.50;99.90;;;;;;4978532;28;20276;-68
2021/06/01 06:05:22;;;;;;;7.23;4.10;;;14.40;99.90;;;;;;4989140;28;20205;-68
2021/06/01 06:07:49;;;;;;;4.77;3.43;;;14.60;99.90;;;;;;4972976;28;20300;-68
2021/06/01 06:10:15;;;;;;;5.40;3.50;;;14.50;99.90;;;;;;4969430;28;20251;-68
2021/06/01 06:12:42;;;;;;;4.50;3.57;;;14.50;99.90;;;;;;4955994;28;20290;-68
2021/06/01 06:15:11;;;;;;;8.27;4.23;;;14.90;99.90;;;;;;4948890;28;20252;-68
2021/06/01 06:17:47;;;;;;;6.85;4.00;;;14.60;99.90;;;;;;4961142;28;20651;-68
2021/06/01 06:20:15;;;;;;;4.17;3.20;;;14.40;99.90;;;;;;4963798;28;20262;-68
2021/06/01 06:22:41;;;;;;;6.07;3.90;;;14.50;99.90;;;;;;4970379;28;20308;-68
2021/06/01 06:25:09;;;;;;;8.13;3.60;;;14.60;99.90;;;;;;4971554;28;20224;-68
2021/06/01 06:27:36;;;;;;;5.50;3.50;;;14.70;99.90;;;;;;4969173;28;20247;-68
2021/06/01 06:30:04;;;;;;;4.93;3.40;;;14.60;99.90;;;;;;4969082;28;20279;-68
2021/06/01 06:32:30;;;;;;;7.57;3.57;;;14.60;99.90;;;;;;4968240;28;20219;-68
2021/06/01 06:34:57;;;;;;;5.47;3.67;;;14.80;99.90;;;;;;4969385;28;20214;-68
2021/06/01 06:37:24;;;;;;;8.50;3.90;;;14.90;99.90;;;;;;4962402;28;20201;-68
2021/06/01 06:39:51;;;;;;;5.67;3.53;;;15.00;99.90;;;;;;4969373;28;20217;-68
2021/06/01 06:42:18;;;;;;;7.80;3.77;;;15.00;99.90;;;;;;4965136;28;20284;-68
2021/06/01 06:44:48;;;;;;;4.80;3.33;;;15.10;99.90;;;;;;4967813;28;20845;-68
2021/06/01 06:47:25;;;;;;;5.13;3.10;;;15.30;99.90;;;;;;4955654;28;20217;-68
2021/06/01 06:49:53;;;;;;;5.40;3.43;;;15.50;99.90;;;;;;4968031;28;20480;-68
2021/06/01 06:52:20;;;;;;;4.13;3.40;;;15.60;99.90;;;;;;4971785;28;20206;-68
2021/06/01 06:54:48;;;;;;;5.43;3.33;;;15.70;99.90;;;;;;4974358;28;20249;-68
2021/06/01 06:57:14;;;;;;;6.33;3.40;;;15.70;99.90;;;;;;4993673;28;20218;-68
2021/06/01 06:59:40;;;;;;;7.03;3.63;;;15.50;99.90;;;;;;5050887;28;20566;-68
2021/06/01 07:02:07;;;;;;;6.10;3.30;;;15.60;99.90;;;;;;4961694;28;20236;-68
2021/06/01 07:04:34;;;;;;;6.50;3.63;;;15.80;99.90;;;;;;4949759;28;20284;-68
2021/06/01 07:07:00;;;;;;;4.00;3.25;;;15.90;99.90;;;;;;4964468;28;20209;-68
2021/06/01 07:09:27;;;;;;;4.75;3.50;;;15.80;99.90;;;;;;4967914;28;20212;-68
2021/06/01 07:11:54;;;;;;;8.07;3.20;;;16.00;99.90;;;;;;4953619;28;20591;-68
2021/06/01 07:14:31;;;;;;;6.35;3.47;;;16.00;99.90;;;;;;4969173;28;20705;-68
2021/06/01 07:16:57;;;;;;;4.93;3.15;;;16.10;99.90;;;;;;4954679;28;20214;-68
2021/06/01 07:19:24;;;;;;;4.47;3.05;;;16.30;99.90;;;;;;4956574;28;20268;-68
2021/06/01 07:21:50;;;;;;;4.60;3.13;;;16.40;99.90;;;;;;4950308;28;20230;-68
2021/06/01 07:24:16;;;;;;;5.30;3.08;;;16.50;99.90;;;;;;4969592;28;20221;-68
2021/06/01 07:26:42;;;;;;;4.38;3.35;;;16.60;99.90;;;;;;4972020;28;20561;-68
2021/06/01 07:29:10;;;;;;;8.43;3.75;;;16.70;99.90;;;;;;5006522;28;20210;-68
2021/06/01 07:31:36;;;;;;;7.20;3.40;;;16.60;99.90;;;;;;4992335;28;20210;-68
2021/06/01 07:34:03;;;;;;;4.40;3.08;;;16.90;99.90;;;;;;4970179;28;20206;-68
2021/06/01 07:36:30;;;;;;;6.28;3.42;;;17.00;99.90;;;;;;4975881;28;20696;-68
2021/06/01 07:38:56;;;;;;;4.07;3.03;;;17.10;99.90;;;;;;4980614;28;20209;-68
2021/06/01 07:41:23;;;;;;;4.10;3.13;;;17.10;99.90;;;;;;4989685;28;20287;-68
2021/06/01 07:43:49;;;;;;;6.05;3.63;;;17.20;99.90;;;;;;4973230;28;20237;-68
2021/06/01 07:46:17;;;;;;;3.70;3.03;;;17.40;99.90;;;;;;4971662;28;20309;-68
2021/06/01 07:48:43;;;;;;;4.85;2.90;;;17.70;99.90;;;;;;4970570;28;20218;-68
2021/06/01 07:51:11;;;;;;;5.38;3.40;;;17.90;99.90;;;;;;4971458;28;20217;-67
2021/06/01 07:53:38;;;;;;;4.40;3.10;;;18.00;99.90;;;;;;4959077;28;20203;-67
2021/06/01 07:56:07;;;;;;;4.95;3.25;;;18.30;99.90;;;;;;4951952;28;20206;-67
2021/06/01 07:58:34;;;;;;;4.93;3.00;;;18.30;99.90;;;;;;4952718;28;20701;-68
2021/06/01 08:01:00;;;;;;;3.45;2.97;;;18.60;99.90;;;;;;4961773;28;20715;-67
2021/06/01 08:03:28;;;;;;;6.88;3.22;;;18.60;99.90;;;;;;4971036;28;20267;-68
2021/06/01 08:05:54;;;;;;;3.60;2.97;;;18.80;99.90;;;;;;4971580;28;20214;-68
2021/06/01 08:08:20;;;;;;;6.20;3.30;;;18.80;99.90;;;;;;4971324;28;20202;-68
2021/06/01 08:10:49;;;;;;;5.30;3.08;;;18.90;99.90;;;;;;4970178;28;20251;-68
2021/06/01 08:13:16;;;;;;;15.57;4.82;;;18.90;99.90;;;;;;4970461;28;20722;-68
2021/06/01 08:15:48;;;;;;;14.23;3.45;;;19.10;99.90;;;;;;4969964;28;20209;-68
2021/06/01 08:18:14;;;;;;;17.15;3.95;;;19.00;99.90;;;;;;4970618;28;20647;-68
2021/06/01 08:20:53;;;;;;;20.52;4.57;;;19.30;99.90;;;;;;4956755;28;20242;-68
2021/06/01 08:23:20;;;;;;;18.83;3.95;;;19.20;99.90;;;;;;4963679;28;20619;-68
2021/06/01 08:25:46;;;;;;;9.00;3.55;;;19.30;99.90;;;;;;4970123;28;20210;-68
2021/06/01 08:28:13;;;;;;;7.68;3.28;;;19.20;99.90;;;;;;4970819;28;20209;-68
2021/06/01 08:30:39;;;;;;;10.13;4.00;;;19.30;99.90;;;;;;4970938;28;20586;-68
2021/06/01 08:33:06;;;;;;;10.40;3.50;;;19.30;99.90;;;;;;4975418;28;20194;-68
2021/06/01 08:35:32;;;;;;;9.50;3.85;;;19.40;99.90;;;;;;4978198;28;20739;-68
2021/06/01 08:38:00;;;;;;;22.63;3.97;;;19.50;99.90;;;;;;4965633;28;20818;-68
2021/06/01 08:40:27;;;;;;;13.32;4.25;;;19.60;99.90;;;;;;4950002;29;20209;-68
2021/06/01 08:42:53;;;;;;;8.13;4.00;;;19.90;99.90;;;;;;4961054;28;20267;-68
2021/06/01 08:45:20;;;;;;;7.88;3.88;;;20.30;99.90;;;;;;4969465;28;20659;-68
2021/06/01 08:47:48;;;;;;;7.65;4.00;;;20.50;99.90;;;;;;4970172;28;20581;-68
2021/06/01 08:50:15;;;;;;;6.30;4.05;;;20.70;99.90;;;;;;4970768;28;20304;-68
2021/06/01 08:52:42;;;;;;;8.18;4.07;;;21.00;99.90;;;;;;4969008;28;20218;-68
2021/06/01 08:55:12;;;;;;;8.23;4.00;;;21.20;99.90;;;;;;4965479;28;20702;-68
2021/06/01 08:57:40;;;;;;;6.38;3.83;;;21.40;99.90;;;;;;4996585;28;20213;-68
2021/06/01 09:00:10;;;;;;;4.93;3.92;;;21.30;99.90;;;;;;4970253;28;20210;-68
2021/06/01 09:02:36;;;;;;;6.03;4.07;;;21.40;99.90;;;;;;4974895;28;20209;-68
2021/06/01 09:05:06;;;;;;;8.27;4.38;;;21.50;99.90;;;;;;4975475;28;20667;-68
2021/06/01 09:07:38;;;;;;;5.45;3.70;;;21.70;99.90;;;;;;4972972;28;20248;-68
2021/06/01 09:21:32;;;;;;;4.85;3.97;;;22.50;99.90;;;;;;4970361;28;20933;-68
2021/06/01 09:24:02;;;;;;;7.63;4.10;;;22.40;99.90;;;;;;4984590;28;20230;-68
2021/06/01 09:26:54;;;;;;;7.50;4.05;;;22.50;99.90;;;;;;4960352;28;20196;-68
2021/06/01 09:29:22;;;;;;;4.60;3.30;;;22.50;99.90;;;;;;4969029;28;20233;-68
2021/06/01 09:32:06;;;;;;;4.85;3.50;;;22.70;99.90;;;;;;4955060;28;20228;-70
2021/06/01 09:34:38;;;;;;;6.85;3.63;;;22.80;99.90;;;;;;4962219;28;20209;-70
2021/06/01 09:37:19;;;;;;;4.45;3.70;;;22.60;99.90;;;;;;4965097;28;20306;-69
2021/06/01 09:40:01;;;;;;;9.90;3.80;;;22.70;99.90;;;;;;4967575;28;20214;-69
2021/06/01 09:42:28;;;;;;;5.85;3.83;;;22.40;99.90;;;;;;4957868;28;20202;-69
2021/06/01 09:45:10;;;;;;;10.30;4.45;;;22.30;99.90;;;;;;4965706;28;20213;-69
2021/06/01 09:47:50;;;;;;;9.88;4.35;;;22.50;99.90;;;;;;4964940;28;20271;-69
2021/06/01 09:50:27;;;;;;;7.15;3.90;;;22.90;99.90;;;;;;4945587;29;20206;-69
2021/06/01 09:52:57;;;;;;;6.90;4.38;;;23.00;99.90;;;;;;4984962;28;20298;-70
2021/06/01 09:55:30;;;;;;;7.50;3.85;;;22.90;99.90;;;;;;5046233;28;20214;-70
2021/06/01 09:57:57;;;;;;;4.63;3.97;;;23.80;99.90;;;;;;5025980;28;20209;-70
2021/06/01 10:00:26;;;;;;;4.47;3.92;;;23.80;99.90;;;;;;4975010;28;20209;-69
2021/06/01 10:02:55;;;;;;;6.13;4.20;;;23.20;99.90;;;;;;4964588;28;20275;-69
2021/06/01 10:05:25;;;;;;;6.93;4.25;;;23.10;99.90;;;;;;4964563;28;20220;-69
2021/06/01 10:07:53;;;;;;;6.95;4.00;;;22.90;99.90;;;;;;4965601;28;20578;-69
2021/06/01 10:10:23;;;;;;;5.30;4.25;;;23.60;99.90;;;;;;4965068;28;20690;-70
2021/06/01 10:12:51;;;;;;;5.90;4.13;;;23.30;99.90;;;;;;4964212;28;20212;-70
2021/06/01 10:15:20;;;;;;;6.82;4.22;;;23.50;99.90;;;;;;4952159;28;20218;-69
2021/06/01 10:17:49;;;;;;;4.85;3.90;;;23.40;99.90;;;;;;4945912;29;20245;-69
2021/06/01 10:20:18;;;;;;;5.40;4.40;;;23.30;99.90;;;;;;4946513;28;20565;-70
2021/06/01 10:22:45;;;;;;;7.40;4.10;;;23.30;99.90;;;;;;4951571;28;20206;-69
2021/06/01 10:25:12;;;;;;;6.60;4.10;;;23.20;99.90;;;;;;4946829;29;20214;-70
2021/06/01 10:27:39;;;;;;;7.25;4.68;;;23.70;99.90;;;;;;4949424;28;20213;-70
2021/06/01 10:30:09;;;;;;;6.32;4.32;;;23.70;99.90;;;;;;4970302;28;20212;-69
2021/06/01 10:32:41;;;;;;;6.45;4.70;;;23.70;99.90;;;;;;4971539;28;20216;-70
2021/06/01 10:35:14;;;;;;;3.95;3.53;;;23.60;99.90;;;;;;4969718;28;20206;-70
2021/06/01 10:49:35;;;;;;;5.95;4.68;;;23.70;99.90;;;;;;4984369;28;20224;-69
2021/06/01 10:52:09;;;;;;;7.45;4.78;;;23.90;99.90;;;;;;4954578;28;20218;-70
2021/06/01 10:55:08;;;;;;;5.55;4.35;;;24.30;99.90;;;;;;4966550;28;20206;-70
2021/06/01 10:57:54;;;;;;;6.78;4.47;;;24.10;99.90;;;;;;4958159;28;20209;-69
2021/06/01 11:03:07;;;;;;;6.30;4.10;;;23.70;99.90;;;;;;4980869;28;22073;-69
2021/06/01 11:06:03;;;;;;;5.22;4.05;;;24.20;99.90;;;;;;4983009;28;20214;-69
2021/06/01 11:08:36;;;;;;;5.90;4.53;;;24.80;99.90;;;;;;4970384;28;20632;-69
2021/06/01 11:11:33;;;;;;;5.95;4.15;;;24.20;99.90;;;;;;4970473;28;20832;-70
2021/06/01 11:14:01;;;;;;;7.20;4.60;;;24.40;99.90;;;;;;4967870;28;20241;-70
2021/06/01 11:16:52;;;;;;;5.60;4.15;;;25.00;99.90;;;;;;4969800;28;20219;-69
2021/06/01 11:19:20;;;;;;;6.35;4.60;;;24.10;99.90;;;;;;4970075;28;20256;-69
2021/06/01 11:21:57;;;;;;;6.65;5.20;;;23.90;99.90;;;;;;4967437;28;20213;-69
2021/06/01 11:33:15;;;;;;;8.80;4.65;;;24.70;99.90;;;;;;4963745;28;20720;-69
2021/06/01 11:35:43;;;;;;;7.82;4.88;;;24.20;99.90;;;;;;4970343;28;20217;-70
2021/06/01 11:38:17;;;;;;;6.78;5.03;;;24.00;99.90;;;;;;4971323;28;20202;-69
2021/06/01 11:43:39;;;;;;;6.90;4.88;;;23.80;99.90;;;;;;4954563;28;20244;-70
2021/06/01 11:46:12;;;;;;;8.88;4.90;;;24.20;99.90;;;;;;5258876;23;20209;-72
2021/06/01 11:51:31;;;;;;;4.80;4.20;;;24.50;99.90;;;;;;4948988;28;20613;-73
2021/06/01 11:54:01;;;;;;;8.65;4.70;;;24.30;99.90;;;;;;4947524;29;20229;-73
2021/06/01 11:56:41;;;;;;;5.90;4.00;;;24.50;99.90;;;;;;4947468;28;20210;-73
2021/06/01 12:02:06;;;;;;;8.60;4.80;;;24.10;99.90;;;;;;4952096;28;20217;-73
2021/06/01 12:04:37;;;;;;;10.77;4.93;;;23.90;99.90;;;;;;4967247;28;20236;-73
2021/06/01 12:12:45;;;;;;;6.63;4.03;;;24.30;99.90;;;;;;4946932;28;20216;-73
2021/06/01 12:18:10;;;;;;;8.10;4.60;;;24.50;99.90;;;;;;4959096;28;20213;-73
2021/06/01 12:20:36;;;;;;;4.40;3.70;;;24.30;99.90;;;;;;4963834;28;20232;-74
2021/06/01 12:23:26;;;;;;;5.97;3.83;;;24.50;99.90;;;;;;4948390;28;20203;-73
2021/06/01 12:26:14;;;;;;;4.78;4.15;;;24.50;99.90;;;;;;4943838;28;20215;-73
2021/06/01 12:31:53;;;;;;;4.47;3.92;;;24.00;99.90;;;;;;4962129;28;20217;-74
2021/06/01 12:34:26;;;;;;;5.20;3.78;;;24.30;99.90;;;;;;4964486;28;20489;-74
2021/06/01 12:42:44;;;;;;;4.03;3.63;;;25.40;99.90;;;;;;4951402;28;20340;-73
2021/06/01 12:45:36;;;;;;;4.95;3.70;;;24.40;99.90;;;;;;4961110;28;20312;-73
2021/06/01 13:19:44;;;;;;;5.13;4.03;;;24.30;99.90;;;;;;4951852;28;21420;-74
2021/06/01 13:31:21;;;;;;;5.20;3.85;;;24.80;99.90;;;;;;4951523;28;20235;-73
2021/06/01 13:39:28;;;;;;;4.18;3.80;;;24.70;99.90;;;;;;4950822;28;20236;-74
2021/06/01 13:47:25;;;;;;;5.55;4.57;;;24.20;99.90;;;;;;4954860;28;20274;-74
2021/06/01 13:49:55;;;;;;;8.07;4.35;;;24.50;99.90;;;;;;4956765;28;20296;-74
2021/06/01 13:55:16;;;;;;;7.72;4.38;;;24.60;99.90;;;;;;4938069;28;20220;-74
2021/06/01 13:58:00;;;;;;;5.95;4.25;;;24.50;99.90;;;;;;4954854;28;20221;-73
2021/06/01 14:00:35;;;;;;;7.70;4.32;;;24.00;99.90;;;;;;4953403;28;20629;-74
2021/06/01 14:15:15;;;;;;;8.82;4.63;;;23.70;99.90;;;;;;4950141;28;20220;-74
2021/06/01 14:20:12;;;;;;;4.72;4.20;;;24.30;99.90;;;;;;4952250;28;20224;-74
2021/06/01 14:31:23;;;;;;;6.55;4.78;;;23.90;99.90;;;;;;4933093;28;20217;-74
2021/06/01 14:37:05;;;;;;;7.13;4.38;;;24.20;99.90;;;;;;4978457;28;20343;-73
2021/06/01 14:40:02;;;;;;;6.63;4.50;;;24.30;99.90;;;;;;4967667;28;20221;-74
2021/06/01 15:49:41;;;;;;;5.18;4.68;;;24.00;99.90;;;;;;4949124;29;20335;-71
2021/06/01 15:52:37;;;;;;;8.15;4.82;;;24.20;99.90;;;;;;4956328;28;20229;-71
2021/06/01 15:55:53;;;;;;;5.40;4.68;;;24.00;99.90;;;;;;4958853;28;20206;-71
2021/06/01 16:23:31;;;;;;;6.43;5.07;;;24.10;99.90;;;;;;4959053;28;20718;-71
2021/06/01 16:31:38;;;;;;;7.68;5.35;;;23.80;99.90;;;;;;4961754;28;20750;-71
2021/06/01 17:04:38;;;;;;;6.53;5.30;;;23.90;99.90;;;;;;4970698;28;20340;-71
2021/06/01 17:07:23;;;;;;;8.23;5.00;;;23.70;99.90;;;;;;4961259;28;20655;-72
2021/06/01 17:12:46;;;;;;;9.18;5.18;;;23.20;99.90;;;;;;4962649;28;20280;-71
2021/06/01 17:15:14;;;;;;;4.55;4.10;;;23.10;99.90;;;;;;4963467;28;20665;-71
2021/06/01 17:17:46;;;;;;;5.43;4.60;;;23.30;99.90;;;;;;4970509;28;20206;-71
2021/06/01 17:23:13;;;;;;;6.13;4.50;;;23.40;99.90;;;;;;4958264;28;20204;-72
2021/06/01 17:31:42;;;;;;;5.50;4.95;;;23.20;99.90;;;;;;4963666;28;20208;-71
2021/06/01 17:36:55;;;;;;;5.82;5.18;;;23.00;99.90;;;;;;4962135;28;20252;-71
2021/06/01 17:39:22;;;;;;;8.35;5.10;;;23.00;99.90;;;;;;4962520;28;20781;-71
2021/06/01 17:41:51;;;;;;;6.95;5.22;;;23.10;99.90;;;;;;4967799;28;20267;-71
2021/06/01 17:44:25;;;;;;;9.10;4.97;;;23.10;99.90;;;;;;4959654;28;20695;-71
2021/06/01 17:46:55;;;;;;;8.02;5.53;;;23.10;99.90;;;;;;4962450;28;20278;-71